Time;durP1;ratioP1;P1;durP2;ratioP2;P2;SDS_P1;SDS_P2;PMS_P1;PMS_P2;Temp;Humidity;BMP_temperature;BMP_pressure;BME280_temperature;BME280_humidity;BME280_pressure;Samples;Min_cycle;Max_cycle;Signal;HPM_P1;HPM_P2
2023/06/16 00:00:19;;;;;;;99.47;8.10;;;;;;;11.65;100.00;98337.34;2605078;28;20052;-90
2023/06/16 00:01:55;;;;;;;42.17;5.57;;;;;;;11.51;100.00;98332.56;2605655;28;20045;-89
2023/06/16 00:03:15;;;;;;;45.63;5.55;;;;;;;11.34;100.00;98330.53;2603400;28;20049;-89
2023/06/16 00:04:31;;;;;;;81.32;7.65;;;;;;;11.71;100.00;98334.50;2603843;28;20049;-89
2023/06/16 00:05:47;;;;;;;29.15;5.80;;;;;;;11.71;100.00;98331.88;2603913;28;20049;-89
2023/06/16 00:07:03;;;;;;;55.85;6.28;;;;;;;11.63;100.00;98333.94;2599799;28;20049;-90
2023/06/16 00:08:19;;;;;;;62.28;6.93;;;;;;;11.56;100.00;98337.66;2603679;28;20048;-90
2023/06/16 00:09:34;;;;;;;53.08;6.43;;;;;;;11.26;100.00;98335.13;2604321;28;20131;-89
2023/06/16 00:10:50;;;;;;;42.80;5.82;;;;;;;11.54;100.00;98337.72;2603607;28;20427;-89
2023/06/16 00:12:06;;;;;;;39.17;5.72;;;;;;;11.59;100.00;98337.53;2602392;28;20053;-89
2023/06/16 00:13:22;;;;;;;36.05;4.70;;;;;;;11.12;100.00;98330.34;2603773;28;20046;-90
2023/06/16 00:14:37;;;;;;;112.05;9.10;;;;;;;11.18;100.00;98324.91;2604516;28;20045;-89
2023/06/16 00:15:53;;;;;;;38.25;5.35;;;;;;;11.37;100.00;98330.41;2603995;28;20080;-90
2023/06/16 00:17:08;;;;;;;67.45;7.38;;;;;;;11.22;100.00;98328.28;2603787;28;20059;-90
2023/06/16 00:18:27;;;;;;;86.88;6.75;;;;;;;11.13;100.00;98326.84;2605483;28;20095;-90
2023/06/16 00:19:43;;;;;;;54.03;6.38;;;;;;;11.17;100.00;98320.56;2603474;28;20520;-90
2023/06/16 00:21:01;;;;;;;60.75;5.80;;;;;;;11.17;100.00;98320.56;2604724;28;20049;-90
2023/06/16 00:22:17;;;;;;;33.22;5.10;;;;;;;10.88;100.00;98323.19;2604818;28;20385;-90
2023/06/16 00:23:33;;;;;;;47.13;6.07;;;;;;;10.95;100.00;98320.41;2603321;28;20053;-90
2023/06/16 00:24:48;;;;;;;28.27;4.70;;;;;;;10.84;100.00;98318.97;2602606;28;20084;-90
2023/06/16 00:26:04;;;;;;;16.08;3.40;;;;;;;10.69;100.00;98315.09;2606072;28;20627;-90
2023/06/16 00:27:23;;;;;;;24.63;4.43;;;;;;;10.80;100.00;98319.97;2604658;28;20041;-90
2023/06/16 00:28:40;;;;;;;89.30;6.57;;;;;;;10.92;100.00;98318.72;2604347;28;20577;-90
2023/06/16 00:29:56;;;;;;;112.28;7.70;;;;;;;11.04;100.00;98311.41;2603560;28;20128;-89
2023/06/16 00:31:12;;;;;;;117.10;10.50;;;;;;;11.02;100.00;98316.66;2602585;28;20056;-89
2023/06/16 00:32:27;;;;;;;105.22;7.40;;;;;;;10.86;100.00;98311.91;2604915;28;20049;-89
2023/06/16 00:33:43;;;;;;;146.48;9.02;;;;;;;10.94;100.00;98316.06;2604182;28;20050;-89
2023/06/16 00:34:59;;;;;;;132.73;8.27;;;;;;;10.86;100.00;98308.47;2602752;28;20088;-89
2023/06/16 00:36:14;;;;;;;102.93;7.55;;;;;;;11.03;100.00;98318.38;2603779;28;20048;-89
2023/06/16 00:37:30;;;;;;;151.80;9.27;;;;;;;11.01;100.00;98317.59;2563886;28;1125987;-89
2023/06/16 00:38:46;;;;;;;110.97;8.93;;;;;;;11.11;100.00;98312.94;2604410;28;20132;-89
2023/06/16 00:40:01;;;;;;;87.38;7.28;;;;;;;10.92;100.00;98315.28;2605796;28;20049;-89
2023/06/16 00:41:17;;;;;;;110.93;8.35;;;;;;;10.90;100.00;98317.94;2603728;28;20054;-89
2023/06/16 00:42:32;;;;;;;163.88;10.68;;;;;;;10.96;100.00;98319.50;2604469;28;20041;-89
2023/06/16 00:43:48;;;;;;;115.85;9.07;;;;;;;11.05;100.00;98318.34;2604449;28;20079;-89
2023/06/16 00:45:05;;;;;;;64.65;7.10;;;;;;;11.02;100.00;98317.53;2604828;28;20041;-88
2023/06/16 00:46:33;;;;;;;29.90;5.55;;;;;;;10.65;100.00;98325.69;2603890;28;20524;-88
2023/06/16 00:47:50;;;;;;;32.92;7.20;;;;;;;10.72;100.00;98322.84;2614351;28;20045;-90
2023/06/16 00:49:06;;;;;;;50.83;5.60;;;;;;;10.74;100.00;98317.53;2610821;28;20401;-89
2023/06/16 00:50:23;;;;;;;69.72;5.72;;;;;;;10.65;100.00;98320.47;2604787;28;20049;-89
2023/06/16 00:51:39;;;;;;;36.85;4.82;;;;;;;10.79;100.00;98315.66;2601686;28;20045;-89
2023/06/16 00:52:55;;;;;;;45.38;5.80;;;;;;;10.68;100.00;98312.50;2604625;28;20045;-89
2023/06/16 00:54:12;;;;;;;95.18;8.32;;;;;;;10.68;100.00;98313.34;2604582;28;20399;-89
2023/06/16 00:55:29;;;;;;;91.63;7.85;;;;;;;10.66;100.00;98309.91;2605529;28;20057;-89
2023/06/16 00:56:45;;;;;;;115.07;9.18;;;;;;;10.69;100.00;98314.22;2604545;28;20110;-89
2023/06/16 00:58:00;;;;;;;61.22;6.30;;;;;;;10.62;100.00;98310.09;2604478;28;20045;-90
2023/06/16 00:59:16;;;;;;;84.63;6.70;;;;;;;10.51;100.00;98308.63;2603953;28;20565;-90
2023/06/16 01:00:35;;;;;;;90.38;7.05;;;;;;;10.55;100.00;98314.66;2604434;28;20049;-89
2023/06/16 01:01:52;;;;;;;95.97;8.23;;;;;;;10.52;100.00;98305.13;2605295;28;20048;-90
2023/06/16 01:03:08;;;;;;;65.00;6.88;;;;;;;10.68;100.00;98313.34;2604409;28;20048;-91
2023/06/16 01:04:25;;;;;;;82.35;7.00;;;;;;;10.64;100.00;98310.88;2602865;28;20056;-89
2023/06/16 01:05:41;;;;;;;63.95;7.57;;;;;;;10.54;100.00;98308.53;2604674;28;20491;-89
2023/06/16 01:07:09;;;;;;;54.10;5.82;;;;;;;10.63;100.00;98303.94;2602499;28;20049;-89
2023/06/16 01:08:37;;;;;;;53.28;6.60;;;;;;;10.51;100.00;98307.75;2604703;28;20905;-90
2023/06/16 01:10:03;;;;;;;49.08;5.65;;;;;;;10.43;100.00;98298.41;2603151;28;20057;-89
2023/06/16 01:11:21;;;;;;;73.25;7.15;;;;;;;10.29;100.00;98303.16;2603632;28;20091;-90
2023/06/16 01:12:48;;;;;;;39.60;5.65;;;;;;;10.32;100.00;98306.50;2604147;28;20077;-88
2023/06/16 01:14:23;;;;;;;40.95;5.75;;;;;;;10.38;100.00;98304.63;2602580;28;20048;-89
2023/06/16 01:15:43;;;;;;;17.27;5.43;;;;;;;10.27;100.00;98297.09;2603417;28;20051;-89
2023/06/16 01:17:01;;;;;;;13.48;5.43;;;;;;;10.31;100.00;98296.94;2603591;28;20535;-90
2023/06/16 01:18:22;;;;;;;21.23;6.07;;;;;;;10.36;100.00;98299.44;2604101;28;20051;-89
2023/06/16 01:19:57;;;;;;;30.67;6.07;;;;;;;10.45;100.00;98298.34;2605506;28;20094;-90
2023/06/16 01:21:38;;;;;;;50.40;6.30;;;;;;;10.39;100.00;98296.72;2604504;28;20077;-90
2023/06/16 01:23:06;;;;;;;17.42;5.47;;;;;;;10.40;100.00;98292.34;2603156;28;21052;-91
2023/06/16 01:24:23;;;;;;;8.48;5.10;;;;;;;10.18;100.00;98306.06;2604550;28;20068;-89
2023/06/16 01:25:42;;;;;;;15.52;5.50;;;;;;;10.04;100.00;98298.63;2598958;28;20096;-89
2023/06/16 01:26:59;;;;;;;29.42;7.88;;;;;;;10.20;100.00;98292.94;2603405;28;20084;-89
2023/06/16 01:28:18;;;;;;;65.43;8.48;;;;;;;10.37;100.00;98298.53;2604045;28;20049;-89
2023/06/16 01:29:36;;;;;;;88.03;8.27;;;;;;;10.38;100.00;98295.00;2603088;28;20050;-90
2023/06/16 01:30:53;;;;;;;104.63;9.02;;;;;;;10.45;100.00;98290.47;2604690;28;20106;-89
2023/06/16 01:32:11;;;;;;;74.30;6.55;;;;;;;10.32;100.00;98288.19;2604702;28;20044;-89
2023/06/16 01:33:29;;;;;;;86.28;6.38;;;;;;;10.31;100.00;98299.56;2604014;28;20056;-89
2023/06/16 01:34:47;;;;;;;85.38;6.85;;;;;;;10.30;100.00;98292.63;2604288;28;20050;-90
2023/06/16 01:36:04;;;;;;;58.67;6.30;;;;;;;10.28;100.00;98290.97;2604183;28;20091;-89
2023/06/16 01:37:21;;;;;;;35.97;5.10;;;;;;;10.37;100.00;98292.47;2603020;28;20071;-90
2023/06/16 01:38:37;;;;;;;29.52;5.28;;;;;;;10.26;100.00;98293.63;2613684;28;20064;-89
2023/06/16 01:39:54;;;;;;;35.17;5.63;;;;;;;10.18;100.00;98288.59;2611353;28;20041;-89
2023/06/16 01:41:10;;;;;;;25.38;5.15;;;;;;;10.26;100.00;98293.63;2603183;28;20048;-89
2023/06/16 01:42:26;;;;;;;20.17;4.72;;;;;;;10.28;100.00;98299.66;2603129;28;20068;-89
2023/06/16 01:43:42;;;;;;;39.40;6.72;;;;;;;10.11;100.00;98292.28;2603527;28;20049;-89
2023/06/16 01:44:59;;;;;;;30.70;5.40;;;;;;;10.09;100.00;98293.25;2599282;28;20041;-89
2023/06/16 01:46:15;;;;;;;26.17;4.97;;;;;;;10.03;100.00;98289.06;2603669;28;20045;-90
2023/06/16 01:47:30;;;;;;;13.45;5.10;;;;;;;10.26;100.00;98292.75;2604442;28;20060;-89
2023/06/16 01:48:46;;;;;;;20.67;4.95;;;;;;;10.16;100.00;98286.94;2604381;28;20060;-90
2023/06/16 01:50:02;;;;;;;18.90;4.85;;;;;;;10.22;100.00;98289.38;2604528;28;20126;-89
2023/06/16 01:51:18;;;;;;;23.85;6.75;;;;;;;10.20;100.00;98291.19;2602660;28;20064;-90
2023/06/16 01:52:34;;;;;;;17.73;5.38;;;;;;;10.14;100.00;98289.59;2604939;28;20144;-89
2023/06/16 01:53:50;;;;;;;126.15;8.32;;;;;;;10.00;100.00;98290.00;2602912;28;20044;-90
2023/06/16 01:55:07;;;;;;;78.57;7.45;;;;;;;9.94;100.00;98287.56;2603469;28;20120;-90
2023/06/16 01:56:23;;;;;;;144.88;9.88;;;;;;;9.85;100.00;98295.66;2603549;28;20053;-91
2023/06/16 01:57:39;;;;;;;148.23;9.38;;;;;;;9.77;100.00;98292.38;2603469;28;20492;-89
2023/06/16 01:58:54;;;;;;;105.28;8.55;;;;;;;9.74;100.00;98295.94;2602181;28;20041;-89
2023/06/16 02:00:26;;;;;;;157.95;10.63;;;;;;;9.68;100.00;98290.88;2604456;28;20053;-89
2023/06/16 02:01:51;;;;;;;131.65;8.77;;;;;;;9.75;100.00;98293.28;2604136;28;20451;-90
2023/06/16 02:03:13;;;;;;;139.52;9.23;;;;;;;9.79;100.00;98294.06;2602429;28;20064;-89
2023/06/16 02:04:32;;;;;;;;;;;;;;;9.79;100.00;98291.44;2603513;28;20081;-90
2023/06/16 02:05:51;;;;;;;187.68;10.52;;;;;;;9.93;100.00;98290.19;2605356;28;19920;-90
2023/06/16 02:07:12;;;;;;;109.40;8.93;;;;;;;10.09;100.00;98293.25;2601457;28;20052;-89
2023/06/16 02:08:31;;;;;;;155.20;10.18;;;;;;;10.03;100.00;98289.88;2602021;28;20060;-90
2023/06/16 02:09:49;;;;;;;130.32;11.65;;;;;;;10.03;100.00;98289.88;2603240;28;20052;-88
2023/06/16 02:11:05;;;;;;;115.40;8.88;;;;;;;10.13;100.00;98292.25;2604045;28;20048;-91
2023/06/16 02:12:21;;;;;;;131.80;10.35;;;;;;;10.17;100.00;98292.13;2603225;28;20263;-91
2023/06/16 02:13:37;;;;;;;144.50;9.57;;;;;;;10.08;100.00;98288.94;2604972;28;20049;-90
2023/06/16 02:14:53;;;;;;;85.78;7.82;;;;;;;10.04;100.00;98289.00;2604945;28;20049;-89
2023/06/16 02:16:08;;;;;;;89.25;6.78;;;;;;;10.08;100.00;98281.91;2604143;28;20091;-89
2023/06/16 02:17:26;;;;;;;131.32;9.00;;;;;;;10.18;100.00;98287.75;2604045;28;20057;-89
2023/06/16 02:18:42;;;;;;;132.15;9.38;;;;;;;10.00;100.00;98284.75;2604120;28;20098;-89
2023/06/16 02:19:58;;;;;;;156.95;12.45;;;;;;;9.81;100.00;98287.03;2603531;28;20056;-90
2023/06/16 02:21:14;;;;;;;145.75;10.45;;;;;;;9.75;100.00;98289.81;2605802;28;20056;-90
2023/06/16 02:22:30;;;;;;;132.75;11.07;;;;;;;9.58;100.00;98285.91;2604971;28;20045;-90
2023/06/16 02:23:46;;;;;;;151.20;11.80;;;;;;;9.68;100.00;98290.88;2603926;28;20044;-89
2023/06/16 02:25:01;;;;;;;38.83;6.60;;;;;;;9.66;100.00;98287.44;2604955;28;20048;-90
2023/06/16 02:26:17;;;;;;;27.90;6.68;;;;;;;9.58;100.00;98287.66;2603628;28;20056;-90
2023/06/16 02:27:33;;;;;;;15.20;6.28;;;;;;;9.59;100.00;98284.13;2602884;28;20046;-90
2023/06/16 02:28:48;;;;;;;23.10;6.90;;;;;;;9.60;100.00;98291.06;2604677;28;20053;-90
2023/06/16 02:30:04;;;;;;;39.85;9.07;;;;;;;9.67;100.00;98287.41;2603247;28;20089;-90
2023/06/16 02:31:20;;;;;;;54.10;9.30;;;;;;;9.72;100.00;98287.28;2602007;28;20053;-89
2023/06/16 02:32:36;;;;;;;25.15;7.45;;;;;;;9.88;100.00;98290.31;2603125;28;20421;-89
2023/06/16 02:33:51;;;;;;;12.48;6.90;;;;;;;9.79;100.00;98285.38;2604145;28;20080;-90
2023/06/16 02:35:07;;;;;;;8.85;6.90;;;;;;;9.88;100.00;98283.34;2603058;28;20049;-90
2023/06/16 02:36:23;;;;;;;8.73;6.68;;;;;;;9.99;100.00;98287.44;2603863;28;20504;-90
2023/06/16 02:37:41;;;;;;;7.57;5.70;;;;;;;9.97;100.00;98286.59;2603159;28;20060;-90
2023/06/16 02:38:56;;;;;;;9.73;6.00;;;;;;;9.72;100.00;98287.28;2604213;28;20493;-90
2023/06/16 02:40:12;;;;;;;7.30;5.50;;;;;;;9.71;100.00;98283.81;2605333;28;20052;-90
2023/06/16 02:41:28;;;;;;;6.45;5.10;;;;;;;9.76;100.00;98283.69;2601952;28;20055;-90
2023/06/16 02:42:43;;;;;;;10.23;5.07;;;;;;;9.80;100.00;98289.69;2603652;28;20114;-90
2023/06/16 02:43:59;;;;;;;6.57;4.78;;;;;;;9.78;100.00;98283.63;2604972;28;20058;-90
2023/06/16 02:45:15;;;;;;;6.18;4.40;;;;;;;9.85;100.00;98283.44;2604316;28;20049;-90
2023/06/16 02:46:30;;;;;;;5.93;4.90;;;;;;;9.77;100.00;98288.00;2603080;28;20049;-90
2023/06/16 02:47:46;;;;;;;6.43;4.45;;;;;;;9.92;100.00;98281.53;2604339;28;20053;-89
2023/06/16 02:49:01;;;;;;;5.75;4.60;;;;;;;9.50;100.00;98284.38;2602767;28;20103;-91
2023/06/16 02:50:18;;;;;;;5.80;4.22;;;;;;;9.51;100.00;98286.09;2602439;28;20053;-91
2023/06/16 02:51:34;;;;;;;7.88;4.45;;;;;;;9.61;100.00;98287.56;2603109;28;20556;-90
2023/06/16 02:52:50;;;;;;;9.30;5.20;;;;;;;9.86;100.00;98287.78;2602563;28;20057;-90
2023/06/16 02:54:06;;;;;;;5.65;4.45;;;;;;;10.02;100.00;98282.94;2604841;28;20060;-90
2023/06/16 02:55:22;;;;;;;13.50;4.90;;;;;;;10.00;100.00;98283.91;2602482;28;20088;-90
2023/06/16 02:56:38;;;;;;;12.50;4.88;;;;;;;10.11;100.00;98275.75;2602501;28;20052;-89
2023/06/16 02:57:53;;;;;;;17.83;5.40;;;;;;;10.01;100.00;98281.22;2602743;28;20067;-89
2023/06/16 02:59:10;;;;;;;25.77;5.47;;;;;;;10.09;100.00;98282.78;2603227;28;20136;-89
2023/06/16 03:00:26;;;;;;;79.18;8.18;;;;;;;10.17;100.00;98283.41;2603127;28;20053;-89
2023/06/16 03:01:41;;;;;;;77.40;6.55;;;;;;;10.23;100.00;98274.53;2605116;28;20060;-90
2023/06/16 03:02:57;;;;;;;54.53;6.38;;;;;;;10.12;100.00;98280.09;2613637;28;20516;-90
2023/06/16 03:04:12;;;;;;;77.20;7.15;;;;;;;9.88;100.00;98280.75;2608835;28;20072;-90
2023/06/16 03:05:28;;;;;;;73.65;7.82;;;;;;;10.08;100.00;98279.31;2603334;28;20044;-90
2023/06/16 03:06:44;;;;;;;89.28;7.85;;;;;;;10.23;100.00;98275.41;2604792;28;20349;-90
2023/06/16 03:08:00;;;;;;;9.00;5.00;;;;;;;10.26;100.00;98275.31;2602864;28;20077;-90
2023/06/16 03:09:16;;;;;;;18.23;5.60;;;;;;;10.23;100.00;98282.38;2603921;28;20075;-89
2023/06/16 03:10:31;;;;;;;13.98;5.50;;;;;;;10.19;100.00;98278.97;2601972;28;20045;-90
2023/06/16 03:11:47;;;;;;;36.05;7.35;;;;;;;10.21;100.00;98279.81;2602938;28;20050;-89
2023/06/16 03:13:02;;;;;;;6.20;5.05;;;;;;;10.17;100.00;98281.66;2601901;28;20045;-90
2023/06/16 03:14:20;;;;;;;6.00;4.63;;;;;;;10.24;100.00;98277.13;2602364;28;20136;-90
2023/06/16 03:15:36;;;;;;;11.80;4.80;;;;;;;10.22;100.00;98276.31;2601733;28;20049;-91
2023/06/16 03:16:52;;;;;;;6.07;4.10;;;;;;;10.07;100.00;98279.38;2602356;28;20046;-90
2023/06/16 03:18:07;;;;;;;6.32;4.43;;;;;;;10.20;100.00;98278.13;2601758;28;20509;-90
2023/06/16 03:19:23;;;;;;;15.20;4.80;;;;;;;10.16;100.00;98277.34;2603261;28;20049;-89
2023/06/16 03:20:40;;;;;;;54.20;6.43;;;;;;;10.22;100.00;98272.81;2604064;28;20072;-90
2023/06/16 03:21:55;;;;;;;32.67;5.93;;;;;;;10.12;100.00;98287.94;2602106;28;20172;-90
2023/06/16 03:23:12;;;;;;;97.60;9.07;;;;;;;10.16;100.00;98282.56;2602664;28;20042;-89
2023/06/16 03:24:28;;;;;;;97.53;8.82;;;;;;;10.17;100.00;98275.56;2603930;28;20127;-90
2023/06/16 03:25:43;;;;;;;63.78;7.32;;;;;;;10.16;100.00;98279.09;2602012;28;20083;-89
2023/06/16 03:26:59;;;;;;;128.60;9.95;;;;;;;10.17;100.00;98279.06;2602769;28;20569;-90
2023/06/16 03:28:14;;;;;;;93.60;8.00;;;;;;;10.15;100.00;98283.47;2604281;28;20103;-90
2023/06/16 03:29:30;;;;;;;36.17;6.20;;;;;;;10.11;100.00;98279.22;2602507;28;20093;-89
2023/06/16 03:30:46;;;;;;;17.10;6.03;;;;;;;9.88;100.00;98277.25;2604123;28;20520;-89
2023/06/16 03:32:01;;;;;;;34.83;6.00;;;;;;;9.89;100.00;98278.97;2605003;28;20076;-89
2023/06/16 03:33:17;;;;;;;121.00;9.32;;;;;;;10.03;100.00;98279.44;2603689;28;20409;-89
2023/06/16 03:34:33;;;;;;;56.58;7.18;;;;;;;10.02;100.00;98275.09;2605201;28;20045;-89
2023/06/16 03:35:48;;;;;;;25.63;6.82;;;;;;;10.04;100.00;98277.69;2605229;28;20463;-89
2023/06/16 03:37:04;;;;;;;59.35;7.22;;;;;;;10.22;100.00;98281.53;2603945;28;20531;-89
2023/06/16 03:38:20;;;;;;;14.40;5.88;;;;;;;10.43;100.00;98280.06;2604309;28;20115;-91
2023/06/16 03:39:36;;;;;;;26.92;6.70;;;;;;;10.48;100.00;98279.94;2603977;28;20057;-90
2023/06/16 03:40:51;;;;;;;19.23;5.75;;;;;;;10.43;100.00;98282.69;2605226;28;20493;-89
2023/06/16 03:42:07;;;;;;;12.57;5.18;;;;;;;10.09;100.00;98277.56;2605155;28;20504;-90
2023/06/16 03:43:23;;;;;;;9.30;4.97;;;;;;;10.25;100.00;98284.06;2605027;28;20413;-90
2023/06/16 03:44:39;;;;;;;13.73;5.07;;;;;;;10.22;100.00;98284.16;2604123;28;20057;-89
2023/06/16 03:45:55;;;;;;;8.45;5.07;;;;;;;10.12;100.00;98282.69;2604932;28;20048;-89
2023/06/16 03:47:11;;;;;;;9.80;5.03;;;;;;;10.17;100.00;98289.50;2602924;28;20607;-89
2023/06/16 03:48:27;;;;;;;10.55;4.95;;;;;;;10.26;100.00;98283.16;2605939;28;20061;-89
2023/06/16 03:49:42;;;;;;;10.27;5.43;;;;;;;10.33;100.00;98289.06;2606263;28;20053;-89
2023/06/16 03:50:58;;;;;;;26.88;5.18;;;;;;;10.09;100.00;98288.88;2604219;28;20052;-90
2023/06/16 03:52:14;;;;;;;44.33;7.32;;;;;;;10.46;100.00;98292.19;2605960;28;20436;-90
2023/06/16 03:53:29;;;;;;;65.18;7.43;;;;;;;10.30;100.00;98289.16;2603870;28;20049;-90
2023/06/16 03:54:45;;;;;;;101.15;8.82;;;;;;;10.49;100.00;98286.88;2603136;28;20049;-91
2023/06/16 03:56:01;;;;;;;89.00;8.93;;;;;;;10.52;100.00;98289.41;2604480;28;20080;-91
2023/06/16 03:57:17;;;;;;;73.55;7.82;;;;;;;10.54;100.00;98292.84;2605095;28;20419;-90
2023/06/16 03:58:32;;;;;;;112.60;9.35;;;;;;;10.56;100.00;98295.41;2604268;28;20500;-89
2023/06/16 03:59:48;;;;;;;69.72;7.20;;;;;;;10.46;100.00;98292.19;2604870;28;20045;-89
2023/06/16 04:01:03;;;;;;;48.53;6.95;;;;;;;10.35;100.00;98295.09;2603485;28;20048;-89
2023/06/16 04:02:19;;;;;;;101.28;8.80;;;;;;;10.41;100.00;98294.97;2604880;28;20060;-89
2023/06/16 04:03:35;;;;;;;116.88;9.50;;;;;;;10.40;100.00;98289.75;2604591;28;20160;-89
2023/06/16 04:04:51;;;;;;;21.52;7.22;;;;;;;10.50;100.00;98293.84;2604758;28;21082;-89
2023/06/16 04:06:07;;;;;;;107.45;10.70;;;;;;;10.48;100.00;98297.41;2606018;28;20150;-89
2023/06/16 04:07:23;;;;;;;22.83;6.85;;;;;;;10.35;100.00;98294.25;2608222;28;20088;-89
2023/06/16 04:08:38;;;;;;;44.45;8.98;;;;;;;10.37;100.00;98298.53;2604218;28;20292;-89
2023/06/16 04:09:54;;;;;;;89.20;9.05;;;;;;;10.54;100.00;98292.84;2605473;28;20050;-89
2023/06/16 04:11:09;;;;;;;84.65;8.98;;;;;;;10.63;100.00;98294.31;2603908;28;20079;-88
2023/06/16 04:12:25;;;;;;;93.95;9.38;;;;;;;10.68;100.00;98291.56;2604671;28;21004;-89
2023/06/16 04:13:41;;;;;;;54.03;7.60;;;;;;;10.62;100.00;98297.00;2604668;28;20060;-89
2023/06/16 04:14:57;;;;;;;40.72;7.90;;;;;;;10.45;100.00;98295.72;2605981;28;20067;-89
2023/06/16 04:16:13;;;;;;;40.70;7.00;;;;;;;10.47;100.00;98293.91;2603559;28;20056;-89
2023/06/16 04:17:28;;;;;;;30.33;7.38;;;;;;;10.63;100.00;98293.47;2602886;28;20040;-89
2023/06/16 04:18:48;;;;;;;79.55;9.35;;;;;;;10.77;100.00;98293.03;2605212;28;20057;-89
2023/06/16 04:20:09;;;;;;;77.90;8.38;;;;;;;10.93;100.00;98296.03;2604521;28;20144;-88
2023/06/16 04:21:25;;;;;;;51.40;8.20;;;;;;;11.01;100.00;98296.63;2603121;28;20136;-88
2023/06/16 04:22:41;;;;;;;60.95;8.63;;;;;;;11.06;100.00;98299.97;2604943;28;20042;-88
2023/06/16 04:23:56;;;;;;;32.72;7.65;;;;;;;11.00;100.00;98297.53;2602795;28;20048;-89
2023/06/16 04:25:13;;;;;;;9.00;6.00;;;;;;;11.06;100.00;98291.25;2605300;28;20508;-89
2023/06/16 04:26:29;;;;;;;40.33;7.57;;;;;;;11.01;100.00;98305.34;2604486;28;20504;-89
2023/06/16 04:27:46;;;;;;;47.13;9.57;;;;;;;11.02;100.00;98296.59;2604587;28;20049;-87
2023/06/16 04:29:03;;;;;;;11.63;6.60;;;;;;;10.98;100.00;98294.97;2605153;28;20045;-89
2023/06/16 04:30:24;;;;;;;8.43;5.82;;;;;;;10.90;100.00;98298.75;2604589;28;20053;-88
2023/06/16 04:31:39;;;;;;;11.82;7.13;;;;;;;11.04;100.00;98295.69;2603426;28;20117;-89
2023/06/16 04:32:58;;;;;;;9.77;6.85;;;;;;;11.07;100.00;98293.81;2605511;28;20048;-89
2023/06/16 04:34:14;;;;;;;7.18;5.90;;;;;;;11.09;100.00;98296.38;2603822;28;20073;-89
2023/06/16 04:35:31;;;;;;;7.32;6.18;;;;;;;11.22;100.00;98291.59;2606575;28;20036;-89
2023/06/16 04:36:46;;;;;;;7.65;5.93;;;;;;;11.19;100.00;98296.97;2609967;28;20451;-88
2023/06/16 04:38:03;;;;;;;8.32;6.50;;;;;;;11.35;100.00;98294.66;2603754;28;20149;-89
2023/06/16 04:39:19;;;;;;;7.57;6.05;;;;;;;11.46;100.00;98294.31;2605011;28;20045;-89
2023/06/16 04:40:36;;;;;;;7.97;5.38;;;;;;;11.45;100.00;98293.44;2603469;28;20277;-88
2023/06/16 04:41:52;;;;;;;5.45;4.63;;;;;;;11.51;100.00;98285.38;2601602;28;20072;-89
2023/06/16 04:43:08;;;;;;;5.03;4.53;;;;;;;11.49;100.00;98287.19;2604157;28;20048;-89
2023/06/16 04:44:23;;;;;;;9.80;6.50;;;;;;;11.48;100.00;98287.25;2603431;28;20049;-90
2023/06/16 04:45:39;;;;;;;7.22;5.95;;;;;;;11.61;100.00;98283.31;2604232;28;20052;-89
2023/06/16 04:46:56;;;;;;;9.32;7.10;;;;;;;11.67;100.00;98287.47;2603479;28;20508;-89
2023/06/16 04:48:12;;;;;;;9.05;6.80;;;;;;;11.73;100.00;98290.75;2604262;28;20068;-89
2023/06/16 04:49:27;;;;;;;8.45;6.63;;;;;;;11.75;100.00;98292.47;2604044;28;20507;-89
2023/06/16 04:50:43;;;;;;;7.93;6.20;;;;;;;11.65;100.00;98289.28;2603099;28;20066;-89
2023/06/16 04:51:59;;;;;;;8.07;6.10;;;;;;;11.64;100.00;98298.91;2602901;28;20512;-88
2023/06/16 04:53:14;;;;;;;7.97;6.68;;;;;;;11.70;100.00;98293.44;2602965;28;20054;-89
2023/06/16 04:54:30;;;;;;;8.52;6.40;;;;;;;11.72;100.00;98285.53;2603657;28;20045;-88
2023/06/16 04:55:47;;;;;;;9.52;6.60;;;;;;;11.93;100.00;98296.16;2603978;28;20037;-89
2023/06/16 04:57:03;;;;;;;7.45;6.30;;;;;;;11.83;100.00;98291.28;2604271;28;20053;-89
2023/06/16 04:58:18;;;;;;;8.30;6.60;;;;;;;11.90;100.00;98291.91;2603446;28;20495;-89
2023/06/16 04:59:36;;;;;;;8.80;6.60;;;;;;;11.80;100.00;98290.50;2603132;28;20055;-88
2023/06/16 05:00:51;;;;;;;7.30;6.07;;;;;;;12.03;100.00;98289.72;2602869;28;20061;-88
2023/06/16 05:02:08;;;;;;;9.02;6.50;;;;;;;11.93;100.00;98291.78;2603773;28;20052;-88
2023/06/16 05:03:24;;;;;;;7.50;6.57;;;;;;;11.94;100.00;98295.25;2602710;28;20052;-88
2023/06/16 05:04:43;;;;;;;7.55;6.18;;;;;;;11.98;100.00;98289.84;2603365;28;20496;-88
2023/06/16 05:05:59;;;;;;;8.85;6.80;;;;;;;11.85;100.00;98294.69;2603467;28;20205;-89
2023/06/16 05:07:14;;;;;;;7.80;6.03;;;;;;;11.93;100.00;98291.78;2602895;28;20107;-90
2023/06/16 05:08:30;;;;;;;8.38;6.50;;;;;;;11.81;100.00;98292.22;2602763;28;20124;-90
2023/06/16 05:09:46;;;;;;;9.95;7.32;;;;;;;11.88;100.00;98291.13;2602678;28;20056;-90
2023/06/16 05:11:02;;;;;;;8.00;6.53;;;;;;;12.05;100.00;98292.28;2600303;28;20041;-87
2023/06/16 05:12:17;;;;;;;9.70;7.13;;;;;;;12.13;100.00;98291.09;2602967;28;20144;-88
2023/06/16 05:13:33;;;;;;;9.82;7.10;;;;;;;12.03;100.00;98288.88;2601845;28;20952;-89
2023/06/16 05:14:49;;;;;;;8.43;6.90;;;;;;;12.14;100.00;98292.81;2601793;28;20048;-88
2023/06/16 05:16:05;;;;;;;9.45;6.93;;;;;;;12.36;100.00;98293.78;2603362;28;20053;-89
2023/06/16 05:17:21;;;;;;;9.57;6.97;;;;;;;12.38;100.00;98286.69;2603241;28;20150;-92
2023/06/16 05:18:37;;;;;;;8.20;6.38;;;;;;;12.45;100.00;98287.31;2605016;28;20543;-91
2023/06/16 05:19:53;;;;;;;8.02;6.93;;;;;;;12.37;100.00;98292.88;2603224;28;20072;-88
2023/06/16 05:21:08;;;;;;;9.35;7.32;;;;;;;12.27;100.00;98292.34;2605770;28;20053;-88
2023/06/16 05:22:24;;;;;;;9.23;7.43;;;;;;;12.46;100.00;98295.16;2605064;28;20155;-88
2023/06/16 05:23:39;;;;;;;8.32;7.10;;;;;;;12.55;100.00;98286.06;2603724;28;20053;-88
2023/06/16 05:24:57;;;;;;;12.95;6.90;;;;;;;12.46;100.00;98289.91;2603404;28;20048;-87
2023/06/16 05:26:12;;;;;;;8.25;6.38;;;;;;;12.55;100.00;98280.81;2605167;28;20068;-88
2023/06/16 05:27:28;;;;;;;9.07;7.25;;;;;;;12.61;100.00;98282.34;2604196;28;20106;-89
2023/06/16 05:28:44;;;;;;;9.65;7.00;;;;;;;12.69;100.00;98285.50;2603421;28;20076;-88
2023/06/16 05:30:00;;;;;;;11.43;6.75;;;;;;;12.52;100.00;98284.41;2592154;28;20049;-88
2023/06/16 05:31:16;;;;;;;7.85;6.32;;;;;;;12.27;100.00;98290.56;2597823;28;20489;-84
2023/06/16 05:32:31;;;;;;;8.45;6.75;;;;;;;12.51;100.00;98284.47;2600684;28;20049;-85
2023/06/16 05:33:47;;;;;;;8.15;6.40;;;;;;;12.54;100.00;98295.69;2603389;28;20080;-86
2023/06/16 05:35:03;;;;;;;7.88;6.68;;;;;;;12.54;100.00;98284.34;2603580;28;20049;-88
2023/06/16 05:36:18;;;;;;;7.35;6.10;;;;;;;12.25;100.00;98286.31;2603402;28;20744;-87
2023/06/16 05:37:33;;;;;;;9.40;6.60;;;;;;;12.37;100.00;98288.47;2602590;28;20141;-86
2023/06/16 05:38:51;;;;;;;8.05;6.75;;;;;;;12.73;100.00;98284.50;2602985;28;20080;-86
2023/06/16 05:40:07;;;;;;;10.48;7.05;;;;;;;12.95;100.00;98291.50;2601807;28;20056;-87
2023/06/16 05:41:24;;;;;;;8.07;6.50;;;;;;;12.64;100.00;98283.09;2602160;28;20049;-87
2023/06/16 05:42:40;;;;;;;10.07;7.45;;;;;;;12.75;100.00;98287.91;2604561;28;20465;-86
2023/06/16 05:43:56;;;;;;;10.32;7.03;;;;;;;13.05;100.00;98284.97;2604517;28;20044;-87
2023/06/16 05:45:11;;;;;;;11.15;7.22;;;;;;;13.10;100.00;98290.88;2602450;28;20041;-87
2023/06/16 05:46:27;;;;;;;9.68;6.55;;;;;;;12.80;100.00;98283.31;2604948;28;20090;-86
2023/06/16 05:47:43;;;;;;;9.73;7.57;;;;;;;12.80;100.00;98287.72;2602306;28;20041;-87
2023/06/16 05:48:58;;;;;;;9.55;7.28;;;;;;;12.96;100.00;98288.81;2603357;28;20053;-87
2023/06/16 05:50:14;;;;;;;9.55;7.68;;;;;;;13.10;100.00;98287.41;2604590;28;20046;-84
2023/06/16 05:51:30;;;;;;;10.32;6.60;;;;;;;12.77;100.00;98286.06;2601444;28;20049;-83
2023/06/16 05:52:45;;;;;;;8.95;6.68;;;;;;;13.17;100.00;98293.28;2603060;28;20052;-84
2023/06/16 05:54:03;;;;;;;8.60;7.28;;;;;;;13.13;100.00;98292.53;2604482;28;20045;-85